Terminal Aerodrome Forecast
Issued by NWS

Home | Current Version | Previous Version | Text Only | Print | Product List | Glossary On
Versions: 1 2 3 4 5 6 7 8 9 10 11 12 13 14 15 16 17 18 19 20
000
FTPA31 PHFO 252331 AAA
TAFHTO
TAF AMD
PHTO 252331Z 2600/2624 03010KT P6SM VCSH SCT025 BKN045
     FM260600 24005KT P6SM VCSH SCT025 BKN045
     FM262000 01012KT P6SM VCSH SCT025 BKN045=

USA.gov is the U.S. government's official web portal to all federal, state and local government web resources and services.